« 旧米軍試射場跡 内灘町 2012/4/14 sat | トップページ | 日米親善春祭り 厚木飛行場 2012/4/28 sat »

2012/04/29

定点 富山空港 2012/4/29 sun

20120429_rjnt_00ja8290

はぁるの大川は、ゴウゴウゆくよ♪

GWに突入ですネ! 今年は5月の初めを休みにすれば、9連休とな。小生にはあまり関係ないけれど、人が移動する期間は、かえって動きたくないもの。鹿屋の体験搭乗も当選していたけど、残念ながらチョット辞退。子供の日の岩国も、高速が馬鹿にならないので、諦めとなった。よって、今日は初夏のような太陽の下、地道に地元押さえです。

METAR RJNT 290300Z VRB04KT CAVOK 27/06 Q1016

20120429_rjnt_01hl7730

AAR127 RJNT-RKSI HL7730 A321-231

20120429_rjnt_02ja300k

ADO78 RJCC-RJNK JA300K B737-54K

20120429_rjnt_03b22602

TNA6992 RCTP-RJNT B-22602 A321-112

20120429_rjnt_04ja300k

ADO79 RJNT-RJCC JA300K B737-54K

20120429_rjnt_05ja8290

20120429_rjnt_06ja8290

20120429_rjnt_07ja8290

20120429_rjnt_08ja8290

ANA885 RJTT-RJNT JA8290 B767-381

METAR RJNT 290500Z 35009KT CAVOK 28/06 Q1015

20120429_rjnt_09b22602

TNA6991 RJNT-RCTP B-22602 A321-112

20120429_rjnt_10ja8290

ANA888 RJNT-RJTT JA8290 B767-381

20120429_rjnt_11ja4246

JA4246 SOCATA TB10

20120429_rjnt_12ja2435

JA2435 SF25 日本航空学園

20120429_rjnt_13ja6768

JA6768 B412 富山県消防防災

METAR RJNT 290700Z 34005KT 300V010 CAVOK 26/05 Q1016

20120429_rjnt_14b2297

CSN613 ZYTL-RJNT B-2297 A319-132

20120429_rjnt_15ja8324

20120429_rjnt_16ja8324

20120429_rjnt_17ja8324

20120429_rjnt_18ja8324

20120429_rjnt_19ja8324

ANA887 RJTT-RJNT JA8324 B767-381

本日の東京からのANA便は、あまり強い北風ではなかったけれど、セオリーとおりサークリングの02ランディング。コパイ君達の慣熟か、ほぼ満席の便なので、安全サイドでの選択のようだ。

|

« 旧米軍試射場跡 内灘町 2012/4/14 sat | トップページ | 日米親善春祭り 厚木飛行場 2012/4/28 sat »

富山空港」カテゴリの記事

コメント

厚木に富山とお疲れ様でした。私はこの前日に富山、この日は小松のKE777-300ER飛来(結局FR24のレジと機体データのミスマッチ)で出撃していました(笑)あとでFR24には連絡しておきますッ。ただ面白いものが撮れましたのでこれはまた後日。
さて、28日もそんなにたいした風ではありませんでしたがサークリングでした。特に883はあえて02RQでしたので、コパイ習熟か?と思ってましたが、なるほど満席の場合の安全上の選択という可能性もあるのですね。
厚木の続編お待ちしています。

投稿: whitewing681 | 2012/04/30 20:40

コメントを書く



(ウェブ上には掲載しません)


コメントは記事投稿者が公開するまで表示されません。



トラックバック


この記事へのトラックバック一覧です: 定点 富山空港 2012/4/29 sun:

« 旧米軍試射場跡 内灘町 2012/4/14 sat | トップページ | 日米親善春祭り 厚木飛行場 2012/4/28 sat »